sensor_id;sensor_type;location;lat;lon;timestamp;pressure;altitude;pressure_sealevel;temperature;humidity
67738;BME280;54534;43.612;1.572;2023-04-26T00:02:25;99170.06;;;19.33;50.97
67738;BME280;54534;43.612;1.572;2023-04-26T00:04:52;99168.38;;;19.32;50.74
67738;BME280;54534;43.612;1.572;2023-04-26T00:07:21;99177.22;;;19.33;50.80
67738;BME280;54534;43.612;1.572;2023-04-26T00:09:47;99178.22;;;19.32;50.82
67738;BME280;54534;43.612;1.572;2023-04-26T00:12:12;99178.22;;;19.32;50.66
67738;BME280;54534;43.612;1.572;2023-04-26T00:14:38;99182.69;;;19.31;50.71
67738;BME280;54534;43.612;1.572;2023-04-26T00:17:03;99178.22;;;19.32;50.67
67738;BME280;54534;43.612;1.572;2023-04-26T00:19:29;99171.16;;;19.31;50.55
67738;BME280;54534;43.612;1.572;2023-04-26T00:21:56;99170.31;;;19.30;50.42
67738;BME280;54534;43.612;1.572;2023-04-26T00:24:21;99171.31;;;19.29;50.71
67738;BME280;54534;43.612;1.572;2023-04-26T00:26:47;99173.97;;;19.29;50.56
67738;BME280;54534;43.612;1.572;2023-04-26T00:29:12;99177.47;;;19.30;50.75
67738;BME280;54534;43.612;1.572;2023-04-26T00:31:37;99178.47;;;19.29;50.84
67738;BME280;54534;43.612;1.572;2023-04-26T00:34:03;99174.94;;;19.28;50.76
67738;BME280;54534;43.612;1.572;2023-04-26T00:36:28;99183.78;;;19.29;50.49
67738;BME280;54534;43.612;1.572;2023-04-26T00:38:54;99176.75;;;19.28;50.69
67738;BME280;54534;43.612;1.572;2023-04-26T00:41:19;99169.75;;;19.27;50.59
67738;BME280;54534;43.612;1.572;2023-04-26T00:43:44;99171.44;;;19.28;50.51
67738;BME280;54534;43.612;1.572;2023-04-26T00:46:10;99165.38;;;19.26;50.41
67738;BME280;54534;43.612;1.572;2023-04-26T00:48:36;99168.91;;;19.26;50.66
67738;BME280;54534;43.612;1.572;2023-04-26T00:51:03;99152.06;;;19.26;50.60
67738;BME280;54534;43.612;1.572;2023-04-26T00:53:29;99149.63;;;19.22;50.81
67738;BME280;54534;43.612;1.572;2023-04-26T00:55:55;99153.31;;;19.21;50.63
67738;BME280;54534;43.612;1.572;2023-04-26T00:58:21;99162.13;;;19.22;50.80
67738;BME280;54534;43.612;1.572;2023-04-26T01:00:46;99155.13;;;19.21;50.67
67738;BME280;54534;43.612;1.572;2023-04-26T01:03:14;99155.97;;;19.21;50.83
67738;BME280;54534;43.612;1.572;2023-04-26T01:05:39;99160.56;;;19.19;50.72
67738;BME280;54534;43.612;1.572;2023-04-26T01:08:06;99154.41;;;19.19;50.76
67738;BME280;54534;43.612;1.572;2023-04-26T01:10:33;99157.06;;;19.19;50.71
67738;BME280;54534;43.612;1.572;2023-04-26T01:12:59;99156.06;;;19.20;50.81
67738;BME280;54534;43.612;1.572;2023-04-26T01:15:25;99151.81;;;19.17;50.76
67738;BME280;54534;43.612;1.572;2023-04-26T01:22:54;99140.22;;;19.18;50.92
67738;BME280;54534;43.612;1.572;2023-04-26T01:25:20;99142.16;;;19.16;50.73
67738;BME280;54534;43.612;1.572;2023-04-26T01:27:45;99142.97;;;19.17;50.87
67738;BME280;54534;43.612;1.572;2023-04-26T01:30:11;99141.31;;;19.16;50.91
67738;BME280;54534;43.612;1.572;2023-04-26T01:32:36;99135.13;;;19.15;50.97
67738;BME280;54534;43.612;1.572;2023-04-26T01:35:02;99138.63;;;19.16;50.77
67738;BME280;54534;43.612;1.572;2023-04-26T01:37:27;99139.47;;;19.16;50.58
67738;BME280;54534;43.612;1.572;2023-04-26T01:39:53;99132.44;;;19.15;50.71
67738;BME280;54534;43.612;1.572;2023-04-26T01:42:18;99135.97;;;19.16;50.92
67738;BME280;54534;43.612;1.572;2023-04-26T01:44:44;99130.63;;;19.16;50.76
67738;BME280;54534;43.612;1.572;2023-04-26T01:47:09;99117.44;;;19.14;50.63
67738;BME280;54534;43.612;1.572;2023-04-26T01:49:35;99125.41;;;19.14;50.78
67738;BME280;54534;43.612;1.572;2023-04-26T01:52:00;99121.91;;;19.14;50.54
67738;BME280;54534;43.612;1.572;2023-04-26T01:54:26;99121.09;;;19.13;50.66
67738;BME280;54534;43.612;1.572;2023-04-26T01:56:51;99115.75;;;19.13;50.52
67738;BME280;54534;43.612;1.572;2023-04-26T01:59:16;99111.38;;;19.12;50.52
67738;BME280;54534;43.612;1.572;2023-04-26T02:01:42;99114.06;;;19.12;50.76
67738;BME280;54534;43.612;1.572;2023-04-26T02:04:08;99112.34;;;19.11;50.54
67738;BME280;54534;43.612;1.572;2023-04-26T02:06:33;99116.84;;;19.10;50.73
67738;BME280;54534;43.612;1.572;2023-04-26T02:08:58;99116.84;;;19.10;50.61
67738;BME280;54534;43.612;1.572;2023-04-26T02:11:24;99112.34;;;19.11;50.70
67738;BME280;54534;43.612;1.572;2023-04-26T02:13:51;99109.69;;;19.11;50.75
67738;BME280;54534;43.612;1.572;2023-04-26T02:16:17;99111.38;;;19.12;50.51
67738;BME280;54534;43.612;1.572;2023-04-26T02:18:42;99111.53;;;19.10;50.33
67738;BME280;54534;43.612;1.572;2023-04-26T02:21:10;99107.03;;;19.11;50.51
67738;BME280;54534;43.612;1.572;2023-04-26T02:23:35;99107.88;;;19.11;50.58
67738;BME280;54534;43.612;1.572;2023-04-26T02:26:01;99106.19;;;19.10;50.67
67738;BME280;54534;43.612;1.572;2023-04-26T02:28:27;99102.69;;;19.10;50.55
67738;BME280;54534;43.612;1.572;2023-04-26T02:30:52;99098.31;;;19.09;50.64
67738;BME280;54534;43.612;1.572;2023-04-26T02:33:18;99107.16;;;19.09;50.61
67738;BME280;54534;43.612;1.572;2023-04-26T02:35:43;99099.31;;;19.08;50.41
67738;BME280;54534;43.612;1.572;2023-04-26T02:38:09;99102.94;;;19.07;50.63
67738;BME280;54534;43.612;1.572;2023-04-26T02:40:34;99105.59;;;19.07;50.71
67738;BME280;54534;43.612;1.572;2023-04-26T02:43:00;99099.31;;;19.08;50.84
67738;BME280;54534;43.612;1.572;2023-04-26T02:45:26;99097.59;;;19.07;50.61
67738;BME280;54534;43.612;1.572;2023-04-26T02:47:51;99095.78;;;19.07;50.49
67738;BME280;54534;43.612;1.572;2023-04-26T02:50:17;99102.09;;;19.06;50.50
67738;BME280;54534;43.612;1.572;2023-04-26T02:52:42;99098.47;;;19.07;50.63
67738;BME280;54534;43.612;1.572;2023-04-26T02:55:07;99100.28;;;19.07;50.26
67738;BME280;54534;43.612;1.572;2023-04-26T02:57:33;99100.28;;;19.07;50.63
67738;BME280;54534;43.612;1.572;2023-04-26T02:59:59;99102.94;;;19.07;50.57
67738;BME280;54534;43.612;1.572;2023-04-26T03:02:25;99094.94;;;19.07;50.32
67738;BME280;54534;43.612;1.572;2023-04-26T03:04:50;99094.94;;;19.07;50.41
67738;BME280;54534;43.612;1.572;2023-04-26T03:07:16;99087.09;;;19.05;50.29
67738;BME280;54534;43.612;1.572;2023-04-26T03:09:41;99089.59;;;19.07;50.55
67738;BME280;54534;43.612;1.572;2023-04-26T03:12:07;99087.91;;;19.06;50.65
67738;BME280;54534;43.612;1.572;2023-04-26T03:14:33;99077.25;;;19.06;50.42
67738;BME280;54534;43.612;1.572;2023-04-26T03:16:59;99080.06;;;19.04;50.52
67738;BME280;54534;43.612;1.572;2023-04-26T03:19:25;99094.09;;;19.06;50.26
67738;BME280;54534;43.612;1.572;2023-04-26T03:21:51;99084.41;;;19.05;50.40
67738;BME280;54534;43.612;1.572;2023-04-26T03:24:17;99086.25;;;19.05;50.49
67738;BME280;54534;43.612;1.572;2023-04-26T03:26:42;99089.88;;;19.04;50.33
67738;BME280;54534;43.612;1.572;2023-04-26T03:29:07;99090.72;;;19.04;50.70
67738;BME280;54534;43.612;1.572;2023-04-26T03:31:33;99095.19;;;19.04;50.22
67738;BME280;54534;43.612;1.572;2023-04-26T03:33:59;99087.19;;;19.04;50.35
67738;BME280;54534;43.612;1.572;2023-04-26T03:36:24;99078.34;;;19.03;50.31
67738;BME280;54534;43.612;1.572;2023-04-26T03:38:53;99082.88;;;19.03;50.52
67738;BME280;54534;43.612;1.572;2023-04-26T03:41:18;99082.00;;;19.02;50.53
67738;BME280;54534;43.612;1.572;2023-04-26T03:43:43;99079.34;;;19.02;50.60
67738;BME280;54534;43.612;1.572;2023-04-26T03:46:09;99081.16;;;19.01;50.40
67738;BME280;54534;43.612;1.572;2023-04-26T03:48:34;99080.31;;;19.01;50.38
67738;BME280;54534;43.612;1.572;2023-04-26T03:51:01;99073.16;;;19.01;50.50
67738;BME280;54534;43.612;1.572;2023-04-26T03:53:26;99073.31;;;19.00;50.41
67738;BME280;54534;43.612;1.572;2023-04-26T03:55:51;99079.47;;;19.00;50.37
67738;BME280;54534;43.612;1.572;2023-04-26T03:58:17;99084.78;;;19.00;50.62
67738;BME280;54534;43.612;1.572;2023-04-26T04:00:42;99077.78;;;18.99;50.45
67738;BME280;54534;43.612;1.572;2023-04-26T04:03:08;99081.31;;;19.00;50.49
67738;BME280;54534;43.612;1.572;2023-04-26T04:05:33;99075.13;;;18.99;50.30
67738;BME280;54534;43.612;1.572;2023-04-26T04:07:59;99083.13;;;18.99;50.39
67738;BME280;54534;43.612;1.572;2023-04-26T04:10:25;99081.31;;;19.00;50.36
67738;BME280;54534;43.612;1.572;2023-04-26T04:12:50;99078.63;;;19.00;50.64
67738;BME280;54534;43.612;1.572;2023-04-26T04:15:17;99082.25;;;18.99;50.61
67738;BME280;54534;43.612;1.572;2023-04-26T04:17:43;99081.41;;;18.98;50.52
67738;BME280;54534;43.612;1.572;2023-04-26T04:20:09;99079.59;;;18.99;50.15
67738;BME280;54534;43.612;1.572;2023-04-26T04:22:35;99080.56;;;18.98;50.26
67738;BME280;54534;43.612;1.572;2023-04-26T04:25:00;99075.22;;;18.98;50.62
67738;BME280;54534;43.612;1.572;2023-04-26T04:27:28;99080.44;;;18.99;50.56
67738;BME280;54534;43.612;1.572;2023-04-26T04:29:54;99077.91;;;18.98;50.40
67738;BME280;54534;43.612;1.572;2023-04-26T04:32:20;99070.75;;;18.98;50.30
67738;BME280;54534;43.612;1.572;2023-04-26T04:34:47;99075.22;;;18.98;50.61
67738;BME280;54534;43.612;1.572;2023-04-26T04:37:12;99079.75;;;18.97;50.33
67738;BME280;54534;43.612;1.572;2023-04-26T04:39:38;99079.75;;;18.97;50.47
67738;BME280;54534;43.612;1.572;2023-04-26T04:42:03;99085.06;;;18.97;50.31
67738;BME280;54534;43.612;1.572;2023-04-26T04:44:29;99078.03;;;18.96;50.50
67738;BME280;54534;43.612;1.572;2023-04-26T04:46:54;99078.88;;;18.97;50.32
67738;BME280;54534;43.612;1.572;2023-04-26T04:49:20;99081.56;;;18.97;50.40
67738;BME280;54534;43.612;1.572;2023-04-26T04:51:46;99072.84;;;18.95;50.65
67738;BME280;54534;43.612;1.572;2023-04-26T04:54:12;99085.19;;;18.96;50.33
67738;BME280;54534;43.612;1.572;2023-04-26T04:56:38;99086.19;;;18.95;50.56
67738;BME280;54534;43.612;1.572;2023-04-26T04:59:04;99084.34;;;18.95;50.50
67738;BME280;54534;43.612;1.572;2023-04-26T05:01:30;99093.31;;;18.94;50.37
67738;BME280;54534;43.612;1.572;2023-04-26T05:03:57;99086.19;;;18.95;50.49
67738;BME280;54534;43.612;1.572;2023-04-26T05:06:22;99095.97;;;18.94;50.43
67738;BME280;54534;43.612;1.572;2023-04-26T05:08:48;99095.97;;;18.94;50.28
67738;BME280;54534;43.612;1.572;2023-04-26T05:11:13;99096.94;;;18.93;50.73
67738;BME280;54534;43.612;1.572;2023-04-26T05:13:39;99107.59;;;18.93;50.32
67738;BME280;54534;43.612;1.572;2023-04-26T05:16:05;99103.97;;;18.94;50.29
67738;BME280;54534;43.612;1.572;2023-04-26T05:18:30;99106.63;;;18.94;50.53
67738;BME280;54534;43.612;1.572;2023-04-26T05:20:56;99103.97;;;18.94;50.34
67738;BME280;54534;43.612;1.572;2023-04-26T05:23:22;99105.78;;;18.94;50.45
67738;BME280;54534;43.612;1.572;2023-04-26T05:25:47;99110.25;;;18.93;50.57
67738;BME280;54534;43.612;1.572;2023-04-26T05:28:13;99113.78;;;18.94;50.59
67738;BME280;54534;43.612;1.572;2023-04-26T05:30:38;99123.47;;;18.95;50.60
67738;BME280;54534;43.612;1.572;2023-04-26T05:33:05;99119.97;;;18.94;50.31
67738;BME280;54534;43.612;1.572;2023-04-26T05:35:31;99122.63;;;18.94;50.53
67738;BME280;54534;43.612;1.572;2023-04-26T05:37:57;99115.59;;;18.93;50.38
67738;BME280;54534;43.612;1.572;2023-04-26T05:40:22;99118.16;;;18.95;50.54
67738;BME280;54534;43.612;1.572;2023-04-26T05:42:49;99111.97;;;18.94;50.52
67738;BME280;54534;43.612;1.572;2023-04-26T05:45:15;99119.97;;;18.94;50.75
67738;BME280;54534;43.612;1.572;2023-04-26T05:47:40;99128.81;;;18.95;50.88
67738;BME280;54534;43.612;1.572;2023-04-26T05:50:06;99125.28;;;18.94;50.92
67738;BME280;54534;43.612;1.572;2023-04-26T05:52:32;99129.75;;;18.94;50.80
67738;BME280;54534;43.612;1.572;2023-04-26T05:54:58;99134.25;;;18.93;50.71
67738;BME280;54534;43.612;1.572;2023-04-26T05:57:23;99138.59;;;18.94;50.92
67738;BME280;54534;43.612;1.572;2023-04-26T05:59:49;99141.28;;;18.94;50.66
67738;BME280;54534;43.612;1.572;2023-04-26T06:02:14;99141.28;;;18.94;51.04
67738;BME280;54534;43.612;1.572;2023-04-26T06:04:40;99138.59;;;18.94;50.90
67738;BME280;54534;43.612;1.572;2023-04-26T06:07:05;99137.75;;;18.94;50.85
67738;BME280;54534;43.612;1.572;2023-04-26T06:09:31;99144.78;;;18.95;50.69
67738;BME280;54534;43.612;1.572;2023-04-26T06:11:57;99138.59;;;18.94;51.10
67738;BME280;54534;43.612;1.572;2023-04-26T06:14:22;99143.09;;;18.94;51.00
67738;BME280;54534;43.612;1.572;2023-04-26T06:16:47;99147.56;;;18.93;50.98
67738;BME280;54534;43.612;1.572;2023-04-26T06:19:13;99143.09;;;18.94;50.92
67738;BME280;54534;43.612;1.572;2023-04-26T06:21:38;99143.94;;;18.94;50.83
67738;BME280;54534;43.612;1.572;2023-04-26T06:24:04;99154.59;;;18.94;50.86
67738;BME280;54534;43.612;1.572;2023-04-26T06:26:29;99150.22;;;18.93;50.80
67738;BME280;54534;43.612;1.572;2023-04-26T06:28:56;99147.56;;;18.93;51.05
67738;BME280;54534;43.612;1.572;2023-04-26T06:31:21;99149.50;;;18.91;50.74
67738;BME280;54534;43.612;1.572;2023-04-26T06:33:47;99155.56;;;18.93;50.90
67738;BME280;54534;43.612;1.572;2023-04-26T06:36:13;99157.38;;;18.93;50.65
67738;BME280;54534;43.612;1.572;2023-04-26T06:38:38;99153.88;;;18.92;50.47
67738;BME280;54534;43.612;1.572;2023-04-26T06:41:04;99158.22;;;18.93;50.86
67738;BME280;54534;43.612;1.572;2023-04-26T06:43:29;99162.69;;;18.93;50.73
67738;BME280;54534;43.612;1.572;2023-04-26T06:45:55;99163.56;;;18.93;50.57
67738;BME280;54534;43.612;1.572;2023-04-26T06:48:20;99159.22;;;18.92;50.80
67738;BME280;54534;43.612;1.572;2023-04-26T06:50:45;99159.22;;;18.92;50.73
67738;BME280;54534;43.612;1.572;2023-04-26T06:53:11;99163.69;;;18.92;50.95
67738;BME280;54534;43.612;1.572;2023-04-26T06:55:36;99159.31;;;18.90;50.81
67738;BME280;54534;43.612;1.572;2023-04-26T06:58:02;99150.47;;;18.90;50.90
67738;BME280;54534;43.612;1.572;2023-04-26T07:00:27;99156.66;;;18.90;50.66
67738;BME280;54534;43.612;1.572;2023-04-26T07:02:54;99152.31;;;18.89;50.83
67738;BME280;54534;43.612;1.572;2023-04-26T07:05:19;99147.09;;;18.88;50.99
67738;BME280;54534;43.612;1.572;2023-04-26T07:07:45;99150.63;;;18.88;50.52
67738;BME280;54534;43.612;1.572;2023-04-26T07:10:12;99151.47;;;18.89;50.85
67738;BME280;54534;43.612;1.572;2023-04-26T07:12:38;99144.44;;;18.88;50.70
67738;BME280;54534;43.612;1.572;2023-04-26T07:15:03;99142.63;;;18.88;50.86
67738;BME280;54534;43.612;1.572;2023-04-26T07:17:31;99139.09;;;18.88;50.78
67738;BME280;54534;43.612;1.572;2023-04-26T07:19:56;99147.09;;;18.88;50.80
67738;BME280;54534;43.612;1.572;2023-04-26T07:22:22;99142.75;;;18.87;50.60
67738;BME280;54534;43.612;1.572;2023-04-26T07:24:48;99143.59;;;18.87;50.62
67738;BME280;54534;43.612;1.572;2023-04-26T07:27:14;99138.25;;;18.87;50.50
67738;BME280;54534;43.612;1.572;2023-04-26T07:29:39;99139.25;;;18.86;50.96
67738;BME280;54534;43.612;1.572;2023-04-26T07:32:05;99139.25;;;18.86;50.92
67738;BME280;54534;43.612;1.572;2023-04-26T07:34:31;99137.44;;;18.87;50.70
67738;BME280;54534;43.612;1.572;2023-04-26T07:36:56;99148.91;;;18.87;50.60
67738;BME280;54534;43.612;1.572;2023-04-26T07:39:22;99148.91;;;18.87;50.65
67738;BME280;54534;43.612;1.572;2023-04-26T07:41:47;99148.09;;;18.87;50.83
67738;BME280;54534;43.612;1.572;2023-04-26T07:44:13;99150.88;;;18.85;50.75
67738;BME280;54534;43.612;1.572;2023-04-26T07:46:38;99151.72;;;18.86;50.69
67738;BME280;54534;43.612;1.572;2023-04-26T07:49:03;99150.88;;;18.85;50.72
67738;BME280;54534;43.612;1.572;2023-04-26T07:51:29;99150.88;;;18.85;50.50
67738;BME280;54534;43.612;1.572;2023-04-26T07:53:54;99146.38;;;18.86;50.62
67738;BME280;54534;43.612;1.572;2023-04-26T07:56:20;99148.09;;;18.87;50.31
67738;BME280;54534;43.612;1.572;2023-04-26T07:58:45;99146.38;;;18.86;50.71
67738;BME280;54534;43.612;1.572;2023-04-26T08:01:11;99141.91;;;18.86;50.56
67738;BME280;54534;43.612;1.572;2023-04-26T08:03:36;99153.41;;;18.87;50.69
67738;BME280;54534;43.612;1.572;2023-04-26T08:06:02;99150.88;;;18.85;50.72
67738;BME280;54534;43.612;1.572;2023-04-26T08:08:28;99150.00;;;18.85;50.54
67738;BME280;54534;43.612;1.572;2023-04-26T08:10:53;99156.19;;;18.85;50.40
67738;BME280;54534;43.612;1.572;2023-04-26T08:13:20;99153.53;;;18.85;50.58
67738;BME280;54534;43.612;1.572;2023-04-26T08:15:46;99160.56;;;18.86;50.73
67738;BME280;54534;43.612;1.572;2023-04-26T08:18:12;99155.34;;;18.85;50.69
67738;BME280;54534;43.612;1.572;2023-04-26T08:20:38;99150.00;;;18.85;50.65
67738;BME280;54534;43.612;1.572;2023-04-26T08:23:03;99156.19;;;18.85;50.48
67738;BME280;54534;43.612;1.572;2023-04-26T08:25:29;99160.66;;;18.85;50.89
67738;BME280;54534;43.612;1.572;2023-04-26T08:27:54;99153.66;;;18.84;50.61
67738;BME280;54534;43.612;1.572;2023-04-26T08:30:20;99152.69;;;18.85;50.48
67738;BME280;54534;43.612;1.572;2023-04-26T08:32:46;99154.53;;;18.84;50.63
67738;BME280;54534;43.612;1.572;2023-04-26T08:35:11;99152.81;;;18.83;50.71
67738;BME280;54534;43.612;1.572;2023-04-26T08:37:37;99153.66;;;18.84;50.31
67738;BME280;54534;43.612;1.572;2023-04-26T08:40:07;99159.09;;;18.82;50.42
67738;BME280;54534;43.612;1.572;2023-04-26T08:42:40;99156.44;;;18.82;50.37
67738;BME280;54534;43.612;1.572;2023-04-26T08:45:09;99166.97;;;18.84;50.53
67738;BME280;54534;43.612;1.572;2023-04-26T08:47:47;99158.16;;;18.83;50.65
67738;BME280;54534;43.612;1.572;2023-04-26T08:50:15;99166.13;;;18.83;50.44
67738;BME280;54534;43.612;1.572;2023-04-26T08:52:41;99158.16;;;18.83;50.50
67738;BME280;54534;43.612;1.572;2023-04-26T08:55:08;99153.66;;;18.84;50.72
67738;BME280;54534;43.612;1.572;2023-04-26T08:57:34;99164.31;;;18.84;50.56
67738;BME280;54534;43.612;1.572;2023-04-26T09:00:02;99162.63;;;18.83;50.32
67738;BME280;54534;43.612;1.572;2023-04-26T09:02:30;99163.47;;;18.83;50.43
67738;BME280;54534;43.612;1.572;2023-04-26T09:04:56;99161.66;;;18.84;50.59
67738;BME280;54534;43.612;1.572;2023-04-26T09:09:53;99161.75;;;18.82;50.39
67738;BME280;54534;43.612;1.572;2023-04-26T09:12:19;99168.94;;;18.82;50.74
67738;BME280;54534;43.612;1.572;2023-04-26T09:14:46;99171.47;;;18.83;50.80
67738;BME280;54534;43.612;1.572;2023-04-26T09:17:28;99167.09;;;18.82;50.54
67738;BME280;54534;43.612;1.572;2023-04-26T09:19:54;99166.13;;;18.83;50.61
67738;BME280;54534;43.612;1.572;2023-04-26T09:22:34;99165.28;;;18.83;50.61
67738;BME280;54534;43.612;1.572;2023-04-26T09:25:01;99171.59;;;18.82;50.54
67738;BME280;54534;43.612;1.572;2023-04-26T09:27:46;99174.25;;;18.82;50.37
67738;BME280;54534;43.612;1.572;2023-04-26T09:30:14;99171.59;;;18.82;50.47
67738;BME280;54534;43.612;1.572;2023-04-26T09:32:54;99175.09;;;18.82;50.71
67738;BME280;54534;43.612;1.572;2023-04-26T09:35:24;99173.41;;;18.81;50.54
67738;BME280;54534;43.612;1.572;2023-04-26T09:37:51;99171.59;;;18.82;50.97
67738;BME280;54534;43.612;1.572;2023-04-26T09:40:18;99173.41;;;18.81;50.72
67738;BME280;54534;43.612;1.572;2023-04-26T09:42:44;99182.25;;;18.82;50.40
67738;BME280;54534;43.612;1.572;2023-04-26T09:45:11;99176.06;;;18.81;50.53
67738;BME280;54534;43.612;1.572;2023-04-26T09:47:37;99174.25;;;18.82;50.75
67738;BME280;54534;43.612;1.572;2023-04-26T09:50:02;99174.25;;;18.82;50.77
67738;BME280;54534;43.612;1.572;2023-04-26T09:52:28;99187.59;;;18.82;50.80
67738;BME280;54534;43.612;1.572;2023-04-26T09:54:53;99189.41;;;18.81;50.57
67738;BME280;54534;43.612;1.572;2023-04-26T09:57:20;99185.88;;;18.81;50.55
67738;BME280;54534;43.612;1.572;2023-04-26T09:59:50;99186.72;;;18.81;50.81
67738;BME280;54534;43.612;1.572;2023-04-26T10:02:17;99191.22;;;18.81;50.32
67738;BME280;54534;43.612;1.572;2023-04-26T10:04:45;99189.41;;;18.81;50.81
67738;BME280;54534;43.612;1.572;2023-04-26T10:07:12;99180.56;;;18.81;50.77
67738;BME280;54534;43.612;1.572;2023-04-26T10:09:39;99181.41;;;18.81;50.50
67738;BME280;54534;43.612;1.572;2023-04-26T10:12:05;99189.41;;;18.81;50.82
67738;BME280;54534;43.612;1.572;2023-04-26T10:14:33;99185.88;;;18.81;50.65
67738;BME280;54534;43.612;1.572;2023-04-26T10:16:59;99176.06;;;18.81;50.89
67738;BME280;54534;43.612;1.572;2023-04-26T10:19:24;99172.41;;;18.82;50.92
67738;BME280;54534;43.612;1.572;2023-04-26T10:21:52;99171.59;;;18.82;50.99
67738;BME280;54534;43.612;1.572;2023-04-26T10:24:19;99166.28;;;18.82;50.57
67738;BME280;54534;43.612;1.572;2023-04-26T10:26:54;99173.28;;;18.83;50.64
67738;BME280;54534;43.612;1.572;2023-04-26T10:29:25;99164.44;;;18.82;50.76
67738;BME280;54534;43.612;1.572;2023-04-26T10:34:27;99159.94;;;18.83;50.80
67738;BME280;54534;43.612;1.572;2023-04-26T10:37:13;99158.16;;;18.83;50.41
67738;BME280;54534;43.612;1.572;2023-04-26T10:39:40;99155.63;;;18.82;50.61
67738;BME280;54534;43.612;1.572;2023-04-26T10:42:23;99152.09;;;18.81;50.51
67738;BME280;54534;43.612;1.572;2023-04-26T10:44:58;99144.09;;;18.81;50.82
67738;BME280;54534;43.612;1.572;2023-04-26T10:50:07;99149.44;;;18.81;50.74
67738;BME280;54534;43.612;1.572;2023-04-26T10:52:35;99152.97;;;18.82;50.79
67738;BME280;54534;43.612;1.572;2023-04-26T10:55:01;99148.59;;;18.81;50.90
67738;BME280;54534;43.612;1.572;2023-04-26T11:03:02;99143.25;;;18.81;50.95
67738;BME280;54534;43.612;1.572;2023-04-26T11:05:49;99140.59;;;18.81;50.74
67738;BME280;54534;43.612;1.572;2023-04-26T11:08:18;99139.75;;;18.80;50.78
67738;BME280;54534;43.612;1.572;2023-04-26T11:10:55;99143.25;;;18.81;50.68
67738;BME280;54534;43.612;1.572;2023-04-26T11:13:21;99141.44;;;18.81;50.63
67738;BME280;54534;43.612;1.572;2023-04-26T11:15:51;99141.44;;;18.81;50.82
67738;BME280;54534;43.612;1.572;2023-04-26T11:18:20;99143.00;;;18.84;51.02
67738;BME280;54534;43.612;1.572;2023-04-26T11:20:46;99143.13;;;18.82;50.77
67738;BME280;54534;43.612;1.572;2023-04-26T11:23:12;99144.81;;;18.83;50.47
67738;BME280;54534;43.612;1.572;2023-04-26T11:25:38;99133.31;;;18.83;50.82
67738;BME280;54534;43.612;1.572;2023-04-26T11:28:04;99138.53;;;18.84;50.74
67738;BME280;54534;43.612;1.572;2023-04-26T11:30:31;99138.53;;;18.84;50.88
67738;BME280;54534;43.612;1.572;2023-04-26T11:33:01;99141.19;;;18.84;50.57
67738;BME280;54534;43.612;1.572;2023-04-26T11:35:32;99137.69;;;18.84;50.79
67738;BME280;54534;43.612;1.572;2023-04-26T11:37:59;99132.34;;;18.84;50.93
67738;BME280;54534;43.612;1.572;2023-04-26T11:40:29;99139.50;;;18.83;50.96
67738;BME280;54534;43.612;1.572;2023-04-26T11:42:59;99134.16;;;18.83;50.78
67738;BME280;54534;43.612;1.572;2023-04-26T11:45:25;99130.66;;;18.83;50.80
67738;BME280;54534;43.612;1.572;2023-04-26T11:47:51;99128.00;;;18.83;50.83
67738;BME280;54534;43.612;1.572;2023-04-26T11:50:17;99124.47;;;18.82;50.97
67738;BME280;54534;43.612;1.572;2023-04-26T11:52:43;99121.00;;;18.82;50.98
67738;BME280;54534;43.612;1.572;2023-04-26T11:55:08;99120.84;;;18.83;50.74
67738;BME280;54534;43.612;1.572;2023-04-26T11:57:34;99129.69;;;18.84;50.82
67738;BME280;54534;43.612;1.572;2023-04-26T12:00:09;99119.03;;;18.84;51.00
67738;BME280;54534;43.612;1.572;2023-04-26T12:02:35;99117.34;;;18.83;50.71
67738;BME280;54534;43.612;1.572;2023-04-26T12:05:01;99122.66;;;18.83;51.21
67738;BME280;54534;43.612;1.572;2023-04-26T12:07:33;99121.00;;;18.82;50.74
67738;BME280;54534;43.612;1.572;2023-04-26T12:10:16;99110.34;;;18.82;51.05
67738;BME280;54534;43.612;1.572;2023-04-26T12:12:43;99111.16;;;18.82;51.08
67738;BME280;54534;43.612;1.572;2023-04-26T12:15:10;99113.81;;;18.82;50.86
67738;BME280;54534;43.612;1.572;2023-04-26T12:17:36;99105.81;;;18.82;51.21
67738;BME280;54534;43.612;1.572;2023-04-26T12:20:11;99095.31;;;18.81;50.91
67738;BME280;54534;43.612;1.572;2023-04-26T12:22:37;99101.50;;;18.81;51.39
67738;BME280;54534;43.612;1.572;2023-04-26T12:25:06;99104.16;;;18.81;50.99
67738;BME280;54534;43.612;1.572;2023-04-26T12:27:32;99105.81;;;18.82;51.36
67738;BME280;54534;43.612;1.572;2023-04-26T12:29:57;99099.53;;;18.83;51.46
67738;BME280;54534;43.612;1.572;2023-04-26T12:32:23;99097.84;;;18.82;51.23
67738;BME280;54534;43.612;1.572;2023-04-26T12:34:48;99102.34;;;18.82;51.19
67738;BME280;54534;43.612;1.572;2023-04-26T12:37:13;99103.16;;;18.82;51.46
67738;BME280;54534;43.612;1.572;2023-04-26T12:39:39;99104.88;;;18.83;51.35
67738;BME280;54534;43.612;1.572;2023-04-26T12:42:04;99110.34;;;18.82;51.01
67738;BME280;54534;43.612;1.572;2023-04-26T12:44:30;99101.50;;;18.81;51.03
67738;BME280;54534;43.612;1.572;2023-04-26T12:46:56;99102.34;;;18.82;51.31
67738;BME280;54534;43.612;1.572;2023-04-26T12:49:21;99106.69;;;18.83;50.98
67738;BME280;54534;43.612;1.572;2023-04-26T12:51:47;99106.69;;;18.83;51.35
67738;BME280;54534;43.612;1.572;2023-04-26T12:54:12;99114.66;;;18.83;51.35
67738;BME280;54534;43.612;1.572;2023-04-26T12:56:37;99111.03;;;18.84;50.97
67738;BME280;54534;43.612;1.572;2023-04-26T12:59:07;99107.78;;;18.80;51.35
67738;BME280;54534;43.612;1.572;2023-04-26T13:01:33;99101.50;;;18.81;51.35
67738;BME280;54534;43.612;1.572;2023-04-26T13:03:58;99107.53;;;18.83;51.50
67738;BME280;54534;43.612;1.572;2023-04-26T13:06:24;99097.00;;;18.82;51.19
67738;BME280;54534;43.612;1.572;2023-04-26T13:08:52;99100.38;;;18.84;51.04
67738;BME280;54534;43.612;1.572;2023-04-26T13:11:17;99093.34;;;18.83;51.33
67738;BME280;54534;43.612;1.572;2023-04-26T13:13:43;99104.00;;;18.83;51.13
67738;BME280;54534;43.612;1.572;2023-04-26T13:16:08;99097.72;;;18.84;51.46